sensor_id;sensor_type;location;lat;lon;timestamp;P1;durP1;ratioP1;P2;durP2;ratioP2
10509;SDS011;5303;53.266;10.410;2024-02-21T00:00:06;35.90;;;17.83;;
10509;SDS011;5303;53.266;10.410;2024-02-21T00:02:07;31.53;;;17.13;;
10509;SDS011;5303;53.266;10.410;2024-02-21T00:04:07;33.93;;;16.63;;
10509;SDS011;5303;53.266;10.410;2024-02-21T00:06:08;34.70;;;17.40;;
10509;SDS011;5303;53.266;10.410;2024-02-21T00:08:08;37.53;;;17.40;;
10509;SDS011;5303;53.266;10.410;2024-02-21T00:10:08;35.37;;;17.27;;
10509;SDS011;5303;53.266;10.410;2024-02-21T00:12:09;37.13;;;17.40;;
10509;SDS011;5303;53.266;10.410;2024-02-21T00:14:09;34.10;;;16.50;;
10509;SDS011;5303;53.266;10.410;2024-02-21T00:16:10;38.00;;;17.37;;
10509;SDS011;5303;53.266;10.410;2024-02-21T00:18:11;37.83;;;17.57;;
10509;SDS011;5303;53.266;10.410;2024-02-21T00:20:11;38.50;;;17.03;;
10509;SDS011;5303;53.266;10.410;2024-02-21T00:22:11;32.67;;;16.10;;
10509;SDS011;5303;53.266;10.410;2024-02-21T00:24:12;37.80;;;16.47;;
10509;SDS011;5303;53.266;10.410;2024-02-21T00:26:12;34.03;;;16.20;;
10509;SDS011;5303;53.266;10.410;2024-02-21T00:28:13;34.53;;;16.57;;
10509;SDS011;5303;53.266;10.410;2024-02-21T00:30:13;35.37;;;16.10;;
10509;SDS011;5303;53.266;10.410;2024-02-21T00:32:14;26.30;;;15.07;;
10509;SDS011;5303;53.266;10.410;2024-02-21T00:34:14;29.20;;;14.77;;
10509;SDS011;5303;53.266;10.410;2024-02-21T00:36:14;33.27;;;15.57;;
10509;SDS011;5303;53.266;10.410;2024-02-21T00:38:15;25.87;;;14.73;;
10509;SDS011;5303;53.266;10.410;2024-02-21T00:40:15;26.67;;;15.87;;
10509;SDS011;5303;53.266;10.410;2024-02-21T00:42:20;27.50;;;15.33;;
10509;SDS011;5303;53.266;10.410;2024-02-21T00:44:21;35.47;;;16.20;;
10509;SDS011;5303;53.266;10.410;2024-02-21T00:46:21;30.53;;;14.97;;
10509;SDS011;5303;53.266;10.410;2024-02-21T00:48:21;29.27;;;16.13;;
10509;SDS011;5303;53.266;10.410;2024-02-21T00:50:22;26.77;;;15.23;;
10509;SDS011;5303;53.266;10.410;2024-02-21T00:52:22;32.17;;;15.67;;
10509;SDS011;5303;53.266;10.410;2024-02-21T00:54:22;31.80;;;16.00;;
10509;SDS011;5303;53.266;10.410;2024-02-21T00:56:23;30.80;;;15.83;;
10509;SDS011;5303;53.266;10.410;2024-02-21T00:58:23;27.83;;;15.07;;
10509;SDS011;5303;53.266;10.410;2024-02-21T01:00:23;33.60;;;16.57;;
10509;SDS011;5303;53.266;10.410;2024-02-21T01:02:24;27.53;;;15.77;;
10509;SDS011;5303;53.266;10.410;2024-02-21T01:04:24;26.67;;;15.37;;
10509;SDS011;5303;53.266;10.410;2024-02-21T01:06:24;29.90;;;15.40;;
10509;SDS011;5303;53.266;10.410;2024-02-21T01:08:25;31.30;;;15.67;;
10509;SDS011;5303;53.266;10.410;2024-02-21T01:10:25;28.93;;;16.40;;
10509;SDS011;5303;53.266;10.410;2024-02-21T01:12:25;32.23;;;16.33;;
10509;SDS011;5303;53.266;10.410;2024-02-21T01:14:25;32.27;;;15.83;;
10509;SDS011;5303;53.266;10.410;2024-02-21T01:16:26;27.97;;;15.63;;
10509;SDS011;5303;53.266;10.410;2024-02-21T01:18:26;28.57;;;16.60;;
10509;SDS011;5303;53.266;10.410;2024-02-21T01:20:26;31.43;;;17.47;;
10509;SDS011;5303;53.266;10.410;2024-02-21T01:22:26;24.63;;;15.27;;
10509;SDS011;5303;53.266;10.410;2024-02-21T01:24:27;29.60;;;16.37;;
10509;SDS011;5303;53.266;10.410;2024-02-21T01:26:27;32.27;;;16.70;;
10509;SDS011;5303;53.266;10.410;2024-02-21T01:28:27;28.37;;;16.67;;
10509;SDS011;5303;53.266;10.410;2024-02-21T01:30:27;35.90;;;18.40;;
10509;SDS011;5303;53.266;10.410;2024-02-21T01:32:28;30.40;;;16.97;;
10509;SDS011;5303;53.266;10.410;2024-02-21T01:34:28;28.87;;;17.50;;
10509;SDS011;5303;53.266;10.410;2024-02-21T01:36:28;32.43;;;18.07;;
10509;SDS011;5303;53.266;10.410;2024-02-21T01:38:28;36.20;;;17.50;;
10509;SDS011;5303;53.266;10.410;2024-02-21T01:40:29;31.87;;;17.03;;
10509;SDS011;5303;53.266;10.410;2024-02-21T01:42:29;31.93;;;17.40;;
10509;SDS011;5303;53.266;10.410;2024-02-21T01:44:30;31.60;;;18.00;;
10509;SDS011;5303;53.266;10.410;2024-02-21T01:46:30;33.33;;;17.67;;
10509;SDS011;5303;53.266;10.410;2024-02-21T01:48:31;28.43;;;16.53;;
10509;SDS011;5303;53.266;10.410;2024-02-21T01:50:31;37.00;;;18.20;;
10509;SDS011;5303;53.266;10.410;2024-02-21T01:52:31;29.77;;;17.80;;
10509;SDS011;5303;53.266;10.410;2024-02-21T01:54:33;31.53;;;17.90;;
10509;SDS011;5303;53.266;10.410;2024-02-21T01:56:33;30.63;;;17.13;;
10509;SDS011;5303;53.266;10.410;2024-02-21T01:58:37;30.80;;;17.90;;
10509;SDS011;5303;53.266;10.410;2024-02-21T02:00:44;30.27;;;16.93;;
10509;SDS011;5303;53.266;10.410;2024-02-21T02:02:45;35.83;;;18.13;;
10509;SDS011;5303;53.266;10.410;2024-02-21T02:04:45;37.10;;;18.70;;
10509;SDS011;5303;53.266;10.410;2024-02-21T02:06:46;31.80;;;18.33;;
10509;SDS011;5303;53.266;10.410;2024-02-21T02:08:46;34.57;;;19.10;;
10509;SDS011;5303;53.266;10.410;2024-02-21T02:10:46;28.10;;;17.90;;
10509;SDS011;5303;53.266;10.410;2024-02-21T02:12:47;37.17;;;19.87;;
10509;SDS011;5303;53.266;10.410;2024-02-21T02:14:56;38.70;;;18.30;;
10509;SDS011;5303;53.266;10.410;2024-02-21T02:17:00;31.83;;;17.37;;
10509;SDS011;5303;53.266;10.410;2024-02-21T02:19:00;31.73;;;18.80;;
10509;SDS011;5303;53.266;10.410;2024-02-21T02:21:01;32.67;;;19.27;;
10509;SDS011;5303;53.266;10.410;2024-02-21T02:23:07;35.40;;;18.80;;
10509;SDS011;5303;53.266;10.410;2024-02-21T02:25:10;34.33;;;18.93;;
10509;SDS011;5303;53.266;10.410;2024-02-21T02:27:10;32.07;;;18.97;;
10509;SDS011;5303;53.266;10.410;2024-02-21T02:29:11;31.60;;;19.23;;
10509;SDS011;5303;53.266;10.410;2024-02-21T02:31:11;33.57;;;19.63;;
10509;SDS011;5303;53.266;10.410;2024-02-21T02:33:11;35.60;;;19.17;;
10509;SDS011;5303;53.266;10.410;2024-02-21T02:35:12;33.53;;;20.00;;
10509;SDS011;5303;53.266;10.410;2024-02-21T02:37:12;31.53;;;18.60;;
10509;SDS011;5303;53.266;10.410;2024-02-21T02:39:12;31.13;;;19.37;;
10509;SDS011;5303;53.266;10.410;2024-02-21T02:41:13;31.60;;;19.30;;
10509;SDS011;5303;53.266;10.410;2024-02-21T02:43:13;34.27;;;19.23;;
10509;SDS011;5303;53.266;10.410;2024-02-21T02:45:13;30.63;;;19.37;;
10509;SDS011;5303;53.266;10.410;2024-02-21T02:47:14;38.63;;;20.00;;
10509;SDS011;5303;53.266;10.410;2024-02-21T02:49:14;34.27;;;19.40;;
10509;SDS011;5303;53.266;10.410;2024-02-21T02:51:14;30.40;;;18.00;;
10509;SDS011;5303;53.266;10.410;2024-02-21T02:53:14;34.10;;;18.83;;
10509;SDS011;5303;53.266;10.410;2024-02-21T02:55:15;34.17;;;18.47;;
10509;SDS011;5303;53.266;10.410;2024-02-21T02:57:16;36.00;;;19.40;;
10509;SDS011;5303;53.266;10.410;2024-02-21T02:59:17;37.10;;;19.37;;
10509;SDS011;5303;53.266;10.410;2024-02-21T03:01:18;34.30;;;19.80;;
10509;SDS011;5303;53.266;10.410;2024-02-21T03:03:18;32.43;;;19.70;;
10509;SDS011;5303;53.266;10.410;2024-02-21T03:05:19;37.97;;;19.53;;
10509;SDS011;5303;53.266;10.410;2024-02-21T03:07:20;36.70;;;19.73;;
10509;SDS011;5303;53.266;10.410;2024-02-21T03:09:20;34.73;;;19.47;;
10509;SDS011;5303;53.266;10.410;2024-02-21T03:11:21;34.50;;;19.43;;
10509;SDS011;5303;53.266;10.410;2024-02-21T03:13:28;37.20;;;19.80;;
10509;SDS011;5303;53.266;10.410;2024-02-21T03:15:28;33.97;;;19.57;;
10509;SDS011;5303;53.266;10.410;2024-02-21T03:17:29;38.97;;;21.20;;
10509;SDS011;5303;53.266;10.410;2024-02-21T03:19:29;39.63;;;20.87;;
10509;SDS011;5303;53.266;10.410;2024-02-21T03:21:29;38.30;;;20.67;;
10509;SDS011;5303;53.266;10.410;2024-02-21T03:23:30;37.37;;;20.40;;
10509;SDS011;5303;53.266;10.410;2024-02-21T03:25:30;40.43;;;21.97;;
10509;SDS011;5303;53.266;10.410;2024-02-21T03:27:30;40.37;;;21.67;;
10509;SDS011;5303;53.266;10.410;2024-02-21T03:29:30;37.10;;;21.40;;
10509;SDS011;5303;53.266;10.410;2024-02-21T03:31:31;37.27;;;20.10;;
10509;SDS011;5303;53.266;10.410;2024-02-21T03:33:31;39.33;;;20.90;;
10509;SDS011;5303;53.266;10.410;2024-02-21T03:35:31;33.13;;;19.73;;
10509;SDS011;5303;53.266;10.410;2024-02-21T03:37:31;39.83;;;20.70;;
10509;SDS011;5303;53.266;10.410;2024-02-21T03:39:32;41.17;;;21.47;;
10509;SDS011;5303;53.266;10.410;2024-02-21T03:41:32;33.03;;;20.10;;
10509;SDS011;5303;53.266;10.410;2024-02-21T03:43:33;37.00;;;19.43;;
10509;SDS011;5303;53.266;10.410;2024-02-21T03:45:33;37.83;;;19.87;;
10509;SDS011;5303;53.266;10.410;2024-02-21T03:47:33;30.83;;;20.43;;
10509;SDS011;5303;53.266;10.410;2024-02-21T03:49:33;34.07;;;19.03;;
10509;SDS011;5303;53.266;10.410;2024-02-21T03:51:33;36.80;;;20.53;;
10509;SDS011;5303;53.266;10.410;2024-02-21T03:53:34;32.53;;;18.87;;
10509;SDS011;5303;53.266;10.410;2024-02-21T03:55:34;35.50;;;18.87;;
10509;SDS011;5303;53.266;10.410;2024-02-21T03:57:34;36.77;;;19.40;;
10509;SDS011;5303;53.266;10.410;2024-02-21T03:59:34;40.10;;;19.57;;
10509;SDS011;5303;53.266;10.410;2024-02-21T04:01:35;33.83;;;18.80;;
10509;SDS011;5303;53.266;10.410;2024-02-21T04:03:35;36.57;;;19.10;;
10509;SDS011;5303;53.266;10.410;2024-02-21T04:05:36;33.43;;;18.47;;
10509;SDS011;5303;53.266;10.410;2024-02-21T04:07:37;30.23;;;18.17;;
10509;SDS011;5303;53.266;10.410;2024-02-21T04:09:38;34.80;;;19.50;;
10509;SDS011;5303;53.266;10.410;2024-02-21T04:11:38;36.37;;;19.00;;
10509;SDS011;5303;53.266;10.410;2024-02-21T04:13:38;32.80;;;18.10;;
10509;SDS011;5303;53.266;10.410;2024-02-21T04:15:38;32.40;;;17.93;;
10509;SDS011;5303;53.266;10.410;2024-02-21T04:17:39;37.43;;;18.93;;
10509;SDS011;5303;53.266;10.410;2024-02-21T04:19:39;34.57;;;18.30;;
10509;SDS011;5303;53.266;10.410;2024-02-21T04:21:39;28.87;;;17.93;;
10509;SDS011;5303;53.266;10.410;2024-02-21T04:23:39;27.97;;;17.47;;
10509;SDS011;5303;53.266;10.410;2024-02-21T04:25:40;31.00;;;17.77;;
10509;SDS011;5303;53.266;10.410;2024-02-21T04:27:40;29.37;;;17.50;;
10509;SDS011;5303;53.266;10.410;2024-02-21T04:29:40;33.27;;;18.23;;
10509;SDS011;5303;53.266;10.410;2024-02-21T04:31:40;33.27;;;18.57;;
10509;SDS011;5303;53.266;10.410;2024-02-21T04:33:41;34.80;;;18.40;;
10509;SDS011;5303;53.266;10.410;2024-02-21T04:35:41;32.47;;;18.20;;
10509;SDS011;5303;53.266;10.410;2024-02-21T04:37:41;29.57;;;17.90;;
10509;SDS011;5303;53.266;10.410;2024-02-21T04:39:41;28.77;;;18.10;;
10509;SDS011;5303;53.266;10.410;2024-02-21T04:41:42;35.27;;;18.67;;
10509;SDS011;5303;53.266;10.410;2024-02-21T04:43:42;32.47;;;17.60;;
10509;SDS011;5303;53.266;10.410;2024-02-21T04:45:42;33.47;;;18.43;;
10509;SDS011;5303;53.266;10.410;2024-02-21T04:47:42;36.20;;;18.57;;
10509;SDS011;5303;53.266;10.410;2024-02-21T04:49:43;32.20;;;17.70;;
10509;SDS011;5303;53.266;10.410;2024-02-21T04:51:43;35.33;;;19.07;;
10509;SDS011;5303;53.266;10.410;2024-02-21T04:53:43;31.23;;;18.77;;
10509;SDS011;5303;53.266;10.410;2024-02-21T04:55:44;29.50;;;18.13;;
10509;SDS011;5303;53.266;10.410;2024-02-21T04:57:44;26.33;;;17.83;;
10509;SDS011;5303;53.266;10.410;2024-02-21T04:59:44;30.00;;;17.57;;
10509;SDS011;5303;53.266;10.410;2024-02-21T05:01:45;30.27;;;17.53;;
10509;SDS011;5303;53.266;10.410;2024-02-21T05:03:45;25.90;;;17.40;;
10509;SDS011;5303;53.266;10.410;2024-02-21T05:05:46;27.87;;;16.90;;
10509;SDS011;5303;53.266;10.410;2024-02-21T05:07:46;32.03;;;16.97;;
10509;SDS011;5303;53.266;10.410;2024-02-21T05:09:46;32.43;;;17.73;;
10509;SDS011;5303;53.266;10.410;2024-02-21T05:11:46;29.97;;;17.03;;
10509;SDS011;5303;53.266;10.410;2024-02-21T05:13:47;32.03;;;17.43;;
10509;SDS011;5303;53.266;10.410;2024-02-21T05:15:48;31.33;;;17.07;;
10509;SDS011;5303;53.266;10.410;2024-02-21T05:17:48;29.07;;;18.27;;
10509;SDS011;5303;53.266;10.410;2024-02-21T05:19:48;30.40;;;18.10;;
10509;SDS011;5303;53.266;10.410;2024-02-21T05:21:48;28.03;;;16.70;;
10509;SDS011;5303;53.266;10.410;2024-02-21T05:23:49;26.80;;;16.27;;
10509;SDS011;5303;53.266;10.410;2024-02-21T05:25:49;26.00;;;17.40;;
10509;SDS011;5303;53.266;10.410;2024-02-21T05:27:51;28.50;;;17.53;;
10509;SDS011;5303;53.266;10.410;2024-02-21T05:29:53;27.83;;;16.27;;
10509;SDS011;5303;53.266;10.410;2024-02-21T05:33:54;25.67;;;16.33;;
10509;SDS011;5303;53.266;10.410;2024-02-21T05:35:54;27.50;;;15.73;;
10509;SDS011;5303;53.266;10.410;2024-02-21T05:37:54;30.33;;;17.67;;
10509;SDS011;5303;53.266;10.410;2024-02-21T05:39:54;26.20;;;17.27;;
10509;SDS011;5303;53.266;10.410;2024-02-21T05:41:55;23.03;;;15.43;;
10509;SDS011;5303;53.266;10.410;2024-02-21T05:43:55;28.60;;;17.03;;
10509;SDS011;5303;53.266;10.410;2024-02-21T05:45:55;24.47;;;16.20;;
10509;SDS011;5303;53.266;10.410;2024-02-21T05:47:56;28.07;;;17.77;;
10509;SDS011;5303;53.266;10.410;2024-02-21T05:49:57;25.83;;;16.50;;
10509;SDS011;5303;53.266;10.410;2024-02-21T05:51:57;28.83;;;16.63;;
10509;SDS011;5303;53.266;10.410;2024-02-21T05:53:57;23.97;;;15.53;;
10509;SDS011;5303;53.266;10.410;2024-02-21T05:55:58;27.00;;;16.17;;
10509;SDS011;5303;53.266;10.410;2024-02-21T05:57:58;28.50;;;16.27;;
10509;SDS011;5303;53.266;10.410;2024-02-21T05:59:58;25.17;;;15.17;;
10509;SDS011;5303;53.266;10.410;2024-02-21T06:01:58;24.83;;;15.73;;
10509;SDS011;5303;53.266;10.410;2024-02-21T06:03:59;24.47;;;15.30;;
10509;SDS011;5303;53.266;10.410;2024-02-21T06:05:59;25.60;;;14.93;;
10509;SDS011;5303;53.266;10.410;2024-02-21T06:08:00;24.23;;;15.10;;
10509;SDS011;5303;53.266;10.410;2024-02-21T06:10:03;25.07;;;14.67;;
10509;SDS011;5303;53.266;10.410;2024-02-21T06:12:04;25.07;;;15.17;;
10509;SDS011;5303;53.266;10.410;2024-02-21T06:14:04;23.87;;;15.40;;
10509;SDS011;5303;53.266;10.410;2024-02-21T06:16:05;24.27;;;13.37;;
10509;SDS011;5303;53.266;10.410;2024-02-21T06:18:06;22.63;;;14.63;;
10509;SDS011;5303;53.266;10.410;2024-02-21T06:20:07;23.97;;;14.80;;
10509;SDS011;5303;53.266;10.410;2024-02-21T06:22:08;18.70;;;13.37;;
10509;SDS011;5303;53.266;10.410;2024-02-21T06:24:08;24.40;;;14.47;;
10509;SDS011;5303;53.266;10.410;2024-02-21T06:26:08;20.30;;;14.50;;
10509;SDS011;5303;53.266;10.410;2024-02-21T06:28:08;20.27;;;13.93;;
10509;SDS011;5303;53.266;10.410;2024-02-21T06:30:09;21.67;;;13.70;;
10509;SDS011;5303;53.266;10.410;2024-02-21T06:32:09;23.83;;;14.10;;
10509;SDS011;5303;53.266;10.410;2024-02-21T06:34:10;22.37;;;13.37;;
10509;SDS011;5303;53.266;10.410;2024-02-21T06:36:10;22.13;;;13.83;;
10509;SDS011;5303;53.266;10.410;2024-02-21T06:38:10;21.97;;;12.60;;
10509;SDS011;5303;53.266;10.410;2024-02-21T06:40:10;19.53;;;12.93;;
10509;SDS011;5303;53.266;10.410;2024-02-21T06:42:11;19.10;;;12.10;;
10509;SDS011;5303;53.266;10.410;2024-02-21T06:44:11;18.97;;;12.20;;
10509;SDS011;5303;53.266;10.410;2024-02-21T06:46:11;18.13;;;12.27;;
10509;SDS011;5303;53.266;10.410;2024-02-21T06:48:12;19.60;;;12.13;;
10509;SDS011;5303;53.266;10.410;2024-02-21T06:50:12;17.73;;;11.80;;
10509;SDS011;5303;53.266;10.410;2024-02-21T06:52:12;18.77;;;12.30;;
10509;SDS011;5303;53.266;10.410;2024-02-21T06:54:16;20.40;;;11.80;;
10509;SDS011;5303;53.266;10.410;2024-02-21T06:56:16;19.13;;;12.20;;
10509;SDS011;5303;53.266;10.410;2024-02-21T06:58:17;18.03;;;11.57;;
10509;SDS011;5303;53.266;10.410;2024-02-21T07:00:17;18.90;;;11.87;;
10509;SDS011;5303;53.266;10.410;2024-02-21T07:02:18;20.57;;;12.10;;
10509;SDS011;5303;53.266;10.410;2024-02-21T07:04:18;16.13;;;11.50;;
10509;SDS011;5303;53.266;10.410;2024-02-21T07:06:18;18.60;;;11.50;;
10509;SDS011;5303;53.266;10.410;2024-02-21T07:08:18;17.50;;;11.27;;
10509;SDS011;5303;53.266;10.410;2024-02-21T07:10:19;20.80;;;11.77;;
10509;SDS011;5303;53.266;10.410;2024-02-21T07:12:19;14.83;;;10.77;;
10509;SDS011;5303;53.266;10.410;2024-02-21T07:14:19;14.63;;;10.60;;
10509;SDS011;5303;53.266;10.410;2024-02-21T07:16:19;16.80;;;10.00;;
10509;SDS011;5303;53.266;10.410;2024-02-21T07:18:20;15.80;;;11.03;;
10509;SDS011;5303;53.266;10.410;2024-02-21T07:20:20;15.37;;;9.43;;
10509;SDS011;5303;53.266;10.410;2024-02-21T07:22:21;12.53;;;9.17;;
10509;SDS011;5303;53.266;10.410;2024-02-21T07:24:21;12.90;;;9.17;;
10509;SDS011;5303;53.266;10.410;2024-02-21T07:26:21;15.80;;;9.83;;
10509;SDS011;5303;53.266;10.410;2024-02-21T07:28:21;11.17;;;8.67;;
10509;SDS011;5303;53.266;10.410;2024-02-21T07:30:22;14.67;;;9.80;;
10509;SDS011;5303;53.266;10.410;2024-02-21T07:32:22;14.50;;;9.73;;
10509;SDS011;5303;53.266;10.410;2024-02-21T07:34:22;11.93;;;8.47;;
10509;SDS011;5303;53.266;10.410;2024-02-21T07:36:29;11.47;;;8.17;;
10509;SDS011;5303;53.266;10.410;2024-02-21T07:38:33;11.37;;;8.47;;
10509;SDS011;5303;53.266;10.410;2024-02-21T07:40:33;13.67;;;9.20;;
10509;SDS011;5303;53.266;10.410;2024-02-21T07:42:33;11.23;;;8.20;;
10509;SDS011;5303;53.266;10.410;2024-02-21T07:44:33;10.57;;;8.40;;
10509;SDS011;5303;53.266;10.410;2024-02-21T07:46:34;12.60;;;8.53;;
10509;SDS011;5303;53.266;10.410;2024-02-21T07:48:34;10.37;;;8.33;;
10509;SDS011;5303;53.266;10.410;2024-02-21T07:50:35;13.90;;;8.57;;
10509;SDS011;5303;53.266;10.410;2024-02-21T07:52:35;10.00;;;7.60;;
10509;SDS011;5303;53.266;10.410;2024-02-21T07:54:35;11.13;;;7.67;;
10509;SDS011;5303;53.266;10.410;2024-02-21T07:56:35;9.67;;;7.13;;
10509;SDS011;5303;53.266;10.410;2024-02-21T07:58:36;10.30;;;7.40;;
10509;SDS011;5303;53.266;10.410;2024-02-21T08:00:36;12.53;;;7.70;;
10509;SDS011;5303;53.266;10.410;2024-02-21T08:02:36;12.50;;;7.97;;
10509;SDS011;5303;53.266;10.410;2024-02-21T08:04:37;10.70;;;7.67;;
10509;SDS011;5303;53.266;10.410;2024-02-21T08:06:38;12.40;;;8.20;;
10509;SDS011;5303;53.266;10.410;2024-02-21T08:08:38;11.83;;;7.80;;
10509;SDS011;5303;53.266;10.410;2024-02-21T08:10:39;10.67;;;7.50;;
10509;SDS011;5303;53.266;10.410;2024-02-21T08:12:39;13.47;;;8.40;;
10509;SDS011;5303;53.266;10.410;2024-02-21T08:14:39;11.17;;;7.80;;
10509;SDS011;5303;53.266;10.410;2024-02-21T08:16:40;8.57;;;7.07;;
10509;SDS011;5303;53.266;10.410;2024-02-21T08:18:40;10.63;;;7.20;;
10509;SDS011;5303;53.266;10.410;2024-02-21T08:20:43;11.17;;;7.70;;
10509;SDS011;5303;53.266;10.410;2024-02-21T08:22:43;12.80;;;7.83;;
10509;SDS011;5303;53.266;10.410;2024-02-21T08:24:44;11.23;;;7.27;;
10509;SDS011;5303;53.266;10.410;2024-02-21T08:26:44;10.97;;;7.70;;
10509;SDS011;5303;53.266;10.410;2024-02-21T08:28:44;10.53;;;7.20;;
10509;SDS011;5303;53.266;10.410;2024-02-21T08:30:45;9.23;;;7.07;;
10509;SDS011;5303;53.266;10.410;2024-02-21T08:32:47;11.00;;;7.23;;
10509;SDS011;5303;53.266;10.410;2024-02-21T08:34:48;9.47;;;7.10;;
10509;SDS011;5303;53.266;10.410;2024-02-21T08:36:48;8.47;;;6.53;;
10509;SDS011;5303;53.266;10.410;2024-02-21T08:38:48;11.13;;;6.93;;
10509;SDS011;5303;53.266;10.410;2024-02-21T08:40:48;10.30;;;7.87;;
10509;SDS011;5303;53.266;10.410;2024-02-21T08:42:49;10.53;;;7.70;;
10509;SDS011;5303;53.266;10.410;2024-02-21T08:44:49;10.83;;;7.70;;
10509;SDS011;5303;53.266;10.410;2024-02-21T08:46:50;10.20;;;7.10;;
10509;SDS011;5303;53.266;10.410;2024-02-21T08:48:50;10.83;;;8.07;;
10509;SDS011;5303;53.266;10.410;2024-02-21T08:50:51;9.73;;;7.27;;
10509;SDS011;5303;53.266;10.410;2024-02-21T08:52:51;10.07;;;8.00;;
10509;SDS011;5303;53.266;10.410;2024-02-21T08:54:51;9.23;;;7.53;;
10509;SDS011;5303;53.266;10.410;2024-02-21T08:56:53;9.70;;;7.43;;
10509;SDS011;5303;53.266;10.410;2024-02-21T08:58:54;11.43;;;7.90;;
10509;SDS011;5303;53.266;10.410;2024-02-21T09:00:54;11.23;;;7.60;;
10509;SDS011;5303;53.266;10.410;2024-02-21T09:02:55;11.50;;;8.00;;
10509;SDS011;5303;53.266;10.410;2024-02-21T09:04:58;9.10;;;7.30;;
10509;SDS011;5303;53.266;10.410;2024-02-21T09:06:58;11.27;;;7.87;;
10509;SDS011;5303;53.266;10.410;2024-02-21T09:08:58;9.00;;;7.37;;
10509;SDS011;5303;53.266;10.410;2024-02-21T09:11:01;10.40;;;7.80;;
10509;SDS011;5303;53.266;10.410;2024-02-21T09:13:02;10.73;;;7.23;;
10509;SDS011;5303;53.266;10.410;2024-02-21T09:15:03;11.00;;;7.77;;
10509;SDS011;5303;53.266;10.410;2024-02-21T09:17:04;9.83;;;7.47;;
10509;SDS011;5303;53.266;10.410;2024-02-21T09:19:04;9.07;;;7.20;;
10509;SDS011;5303;53.266;10.410;2024-02-21T09:21:05;8.97;;;7.13;;
10509;SDS011;5303;53.266;10.410;2024-02-21T09:23:05;9.70;;;7.30;;
10509;SDS011;5303;53.266;10.410;2024-02-21T09:25:05;9.33;;;7.20;;
10509;SDS011;5303;53.266;10.410;2024-02-21T09:27:06;8.40;;;7.50;;
10509;SDS011;5303;53.266;10.410;2024-02-21T09:29:06;10.80;;;8.37;;
10509;SDS011;5303;53.266;10.410;2024-02-21T09:31:07;9.13;;;7.53;;
10509;SDS011;5303;53.266;10.410;2024-02-21T09:33:08;9.97;;;7.70;;
10509;SDS011;5303;53.266;10.410;2024-02-21T09:35:08;10.00;;;7.63;;
10509;SDS011;5303;53.266;10.410;2024-02-21T09:37:09;11.10;;;8.17;;
10509;SDS011;5303;53.266;10.410;2024-02-21T09:39:10;11.30;;;8.53;;
10509;SDS011;5303;53.266;10.410;2024-02-21T09:43:17;10.23;;;8.07;;
10509;SDS011;5303;53.266;10.410;2024-02-21T09:45:21;10.63;;;8.57;;
10509;SDS011;5303;53.266;10.410;2024-02-21T09:47:24;10.67;;;8.33;;
10509;SDS011;5303;53.266;10.410;2024-02-21T09:49:33;9.57;;;8.27;;
10509;SDS011;5303;53.266;10.410;2024-02-21T09:51:35;10.23;;;8.33;;
10509;SDS011;5303;53.266;10.410;2024-02-21T09:53:37;13.53;;;10.03;;
10509;SDS011;5303;53.266;10.410;2024-02-21T09:55:38;13.13;;;9.03;;
10509;SDS011;5303;53.266;10.410;2024-02-21T09:57:41;14.30;;;9.60;;
10509;SDS011;5303;53.266;10.410;2024-02-21T09:59:43;14.30;;;10.93;;
10509;SDS011;5303;53.266;10.410;2024-02-21T10:01:45;16.23;;;11.17;;
10509;SDS011;5303;53.266;10.410;2024-02-21T10:03:48;21.50;;;12.17;;
10509;SDS011;5303;53.266;10.410;2024-02-21T10:05:49;22.43;;;12.57;;
10509;SDS011;5303;53.266;10.410;2024-02-21T10:07:50;17.83;;;13.37;;
10509;SDS011;5303;53.266;10.410;2024-02-21T10:10:03;26.17;;;14.57;;
10509;SDS011;5303;53.266;10.410;2024-02-21T10:12:07;25.27;;;15.00;;
10509;SDS011;5303;53.266;10.410;2024-02-21T10:14:09;23.03;;;15.53;;
10509;SDS011;5303;53.266;10.410;2024-02-21T10:16:09;23.13;;;14.97;;
10509;SDS011;5303;53.266;10.410;2024-02-21T10:18:10;24.93;;;15.10;;
10509;SDS011;5303;53.266;10.410;2024-02-21T10:20:10;24.43;;;15.77;;
10509;SDS011;5303;53.266;10.410;2024-02-21T10:22:11;24.33;;;15.47;;
10509;SDS011;5303;53.266;10.410;2024-02-21T10:24:12;24.67;;;16.20;;
10509;SDS011;5303;53.266;10.410;2024-02-21T10:26:12;22.27;;;15.07;;
10509;SDS011;5303;53.266;10.410;2024-02-21T10:28:14;24.47;;;15.20;;
10509;SDS011;5303;53.266;10.410;2024-02-21T10:30:16;27.67;;;15.13;;
10509;SDS011;5303;53.266;10.410;2024-02-21T10:32:17;24.00;;;15.33;;
10509;SDS011;5303;53.266;10.410;2024-02-21T10:34:17;23.33;;;15.30;;
10509;SDS011;5303;53.266;10.410;2024-02-21T10:36:18;25.10;;;16.03;;
10509;SDS011;5303;53.266;10.410;2024-02-21T10:38:19;24.43;;;13.93;;
10509;SDS011;5303;53.266;10.410;2024-02-21T10:40:19;25.67;;;14.37;;
10509;SDS011;5303;53.266;10.410;2024-02-21T10:42:20;22.53;;;15.17;;
10509;SDS011;5303;53.266;10.410;2024-02-21T10:44:21;21.50;;;13.80;;
10509;SDS011;5303;53.266;10.410;2024-02-21T10:46:23;21.53;;;13.73;;
10509;SDS011;5303;53.266;10.410;2024-02-21T10:48:29;21.83;;;13.10;;
10509;SDS011;5303;53.266;10.410;2024-02-21T10:50:40;18.60;;;13.07;;
10509;SDS011;5303;53.266;10.410;2024-02-21T10:52:56;19.23;;;12.50;;
10509;SDS011;5303;53.266;10.410;2024-02-21T10:55:20;16.47;;;12.13;;
10509;SDS011;5303;53.266;10.410;2024-02-21T10:57:23;18.17;;;12.33;;
10509;SDS011;5303;53.266;10.410;2024-02-21T10:59:27;14.93;;;11.50;;
10509;SDS011;5303;53.266;10.410;2024-02-21T11:01:30;16.10;;;11.10;;
10509;SDS011;5303;53.266;10.410;2024-02-21T11:03:35;17.03;;;10.83;;
10509;SDS011;5303;53.266;10.410;2024-02-21T11:05:36;15.70;;;10.03;;
10509;SDS011;5303;53.266;10.410;2024-02-21T11:07:37;14.20;;;9.50;;
10509;SDS011;5303;53.266;10.410;2024-02-21T11:09:37;15.13;;;9.20;;
10509;SDS011;5303;53.266;10.410;2024-02-21T11:11:41;15.97;;;8.77;;
10509;SDS011;5303;53.266;10.410;2024-02-21T11:13:43;13.73;;;9.17;;
10509;SDS011;5303;53.266;10.410;2024-02-21T11:15:45;16.33;;;9.27;;
10509;SDS011;5303;53.266;10.410;2024-02-21T11:17:54;16.47;;;10.00;;
10509;SDS011;5303;53.266;10.410;2024-02-21T11:19:55;15.13;;;9.40;;
10509;SDS011;5303;53.266;10.410;2024-02-21T11:21:56;13.63;;;9.43;;
10509;SDS011;5303;53.266;10.410;2024-02-21T11:24:01;13.60;;;9.40;;
10509;SDS011;5303;53.266;10.410;2024-02-21T11:26:08;15.13;;;8.93;;
10509;SDS011;5303;53.266;10.410;2024-02-21T11:28:09;15.00;;;9.27;;
10509;SDS011;5303;53.266;10.410;2024-02-21T11:30:11;19.40;;;10.03;;
10509;SDS011;5303;53.266;10.410;2024-02-21T11:32:14;14.07;;;9.50;;
10509;SDS011;5303;53.266;10.410;2024-02-21T11:34:17;14.53;;;9.93;;
10509;SDS011;5303;53.266;10.410;2024-02-21T11:36:25;12.57;;;9.93;;
10509;SDS011;5303;53.266;10.410;2024-02-21T11:38:25;17.53;;;10.27;;
10509;SDS011;5303;53.266;10.410;2024-02-21T11:40:26;15.07;;;10.40;;
10509;SDS011;5303;53.266;10.410;2024-02-21T11:42:26;18.77;;;10.37;;
10509;SDS011;5303;53.266;10.410;2024-02-21T11:44:28;15.97;;;10.87;;
10509;SDS011;5303;53.266;10.410;2024-02-21T11:46:29;15.73;;;11.37;;
10509;SDS011;5303;53.266;10.410;2024-02-21T11:48:33;19.43;;;11.50;;
10509;SDS011;5303;53.266;10.410;2024-02-21T11:50:34;18.63;;;11.53;;
10509;SDS011;5303;53.266;10.410;2024-02-21T11:52:36;21.63;;;11.40;;
10509;SDS011;5303;53.266;10.410;2024-02-21T11:54:36;20.77;;;11.53;;